Time;durP1;ratioP1;P1;durP2;ratioP2;P2;SDS_P1;SDS_P2;PMS_P1;PMS_P2;Temp;Humidity;BMP_temperature;BMP_pressure;BME280_temperature;BME280_humidity;BME280_pressure;Samples;Min_cycle;Max_cycle;Signal;HPM_P1;HPM_P2
2023/05/18 00:00:14;;;;;;;9.20;3.67;;;;;;;;;;6242105;23;20412;-72
2023/05/18 00:02:41;;;;;;;10.60;3.65;;;8.70;99.90;;;;;;6240912;23;20369;-72
2023/05/18 00:05:09;;;;;;;7.73;3.50;;;8.70;99.90;;;;;;6242454;23;20362;-73
2023/05/18 00:07:36;;;;;;;10.80;3.40;;;;;;;;;;6241496;23;20684;-72
2023/05/18 00:10:02;;;;;;;8.10;3.40;;;;;;;;;;6217097;23;20377;-72
2023/05/18 00:12:28;;;;;;;8.05;3.70;;;;;;;;;;6241622;23;20389;-74
2023/05/18 00:14:54;;;;;;;8.07;3.50;;;;;;;;;;6242754;23;20382;-74
2023/05/18 00:17:20;;;;;;;11.30;4.20;;;;;;;;;;6242260;23;20361;-74
2023/05/18 00:19:49;;;;;;;9.77;3.40;;;;;;;;;;6242195;23;20382;-74
2023/05/18 00:22:17;;;;;;;9.80;3.60;;;;;;;;;;6243009;23;20370;-75
2023/05/18 00:24:47;;;;;;;9.93;3.40;;;;;;;;;;6242397;23;20369;-76
2023/05/18 00:27:13;;;;;;;11.02;3.42;;;;;;;;;;6215909;23;20421;-76
2023/05/18 00:29:39;;;;;;;8.85;3.15;;;;;;;;;;6241447;23;20457;-76
2023/05/18 00:32:05;;;;;;;10.82;3.53;;;;;;;;;;6242396;23;20461;-76
2023/05/18 00:34:31;;;;;;;12.95;3.50;;;;;;;;;;6241688;23;20380;-76
2023/05/18 00:36:57;;;;;;;11.45;3.50;;;;;;;;;;6216586;23;20366;-75
2023/05/18 00:39:24;;;;;;;8.15;3.28;;;;;;;;;;6216580;23;20811;-75
2023/05/18 00:41:50;;;;;;;6.60;3.33;;;;;;;;;;6215927;23;20362;-76
2023/05/18 00:44:16;;;;;;;8.98;3.42;;;;;;;;;;6241130;23;20843;-74
2023/05/18 00:46:43;;;;;;;9.90;3.60;;;;;;;;;;6216576;23;20374;-77
2023/05/18 00:49:10;;;;;;;8.55;3.80;;;;;;;;;;6241956;23;20400;-77
2023/05/18 00:51:36;;;;;;;8.95;3.60;;;;;;;;;;6217265;23;20370;-77
2023/05/18 00:54:03;;;;;;;8.30;3.33;;;;;;;;;;6243522;23;20390;-76
2023/05/18 00:56:32;;;;;;;12.32;4.20;;;;;;;;;;6244156;23;20366;-77
2023/05/18 00:59:00;;;;;;;9.37;3.67;;;8.50;99.90;;;;;;6243933;23;20701;-77
2023/05/18 01:01:35;;;;;;;11.07;3.43;;;8.60;99.90;;;;;;6243833;23;20507;-77
2023/05/18 01:04:03;;;;;;;8.60;3.40;;;8.50;99.90;;;;;;6243992;23;20428;-77
2023/05/18 01:06:34;;;;;;;8.60;3.70;;;;;;;;;;6244630;23;20441;-76
2023/05/18 01:09:05;;;;;;;10.23;3.67;;;;;;;;;;6243896;23;20424;-76
2023/05/18 01:11:51;;;;;;;10.57;3.50;;;;;;;;;;6243987;23;20377;-74
2023/05/18 01:14:28;;;;;;;8.15;3.47;;;;;;;;;;6243907;22;20366;-76
2023/05/18 01:16:56;;;;;;;11.38;3.63;;;;;;;;;;6243675;23;20443;-76
2023/05/18 01:19:34;;;;;;;10.80;3.50;;;;;;;;;;6243102;23;20412;-76
2023/05/18 01:22:13;;;;;;;8.35;3.20;;;;;;;;;;6215131;23;20445;-77
2023/05/18 01:24:44;;;;;;;9.48;3.47;;;;;;;;;;6241032;23;20365;-77
2023/05/18 01:27:13;;;;;;;10.25;3.35;;;;;;;;;;6243404;23;20384;-77
2023/05/18 01:29:40;;;;;;;12.35;3.97;;;8.20;99.90;;;;;;6245592;22;20366;-77
2023/05/18 01:32:07;;;;;;;9.32;3.70;;;;;;;;;;6245090;22;20433;-77
2023/05/18 01:34:33;;;;;;;11.80;3.63;;;;;;;;;;6245294;23;20348;-77
2023/05/18 01:36:59;;;;;;;9.75;3.60;;;;;;;;;;6240787;23;20423;-77
2023/05/18 01:39:25;;;;;;;11.23;3.67;;;;;;;;;;6218493;23;20366;-77
2023/05/18 01:41:57;;;;;;;11.40;3.83;;;7.90;99.90;;;;;;6244077;23;20365;-77
2023/05/18 01:44:27;;;;;;;9.15;3.70;;;7.80;99.90;;;;;;6243395;23;20354;-78
2023/05/18 01:47:00;;;;;;;8.38;3.20;;;;;;;;;;6242861;23;20404;-77
2023/05/18 01:49:50;;;;;;;9.52;3.80;;;7.90;99.90;;;;;;6243230;23;20365;-77
2023/05/18 01:52:18;;;;;;;10.98;3.47;;;;;;;;;;6242694;23;20394;-76
2023/05/18 01:54:48;;;;;;;8.70;3.90;;;8.00;99.90;;;;;;6241882;23;20366;-75
2023/05/18 01:57:15;;;;;;;9.05;3.63;;;;;;;;;;6244076;23;20445;-79
2023/05/18 01:59:42;;;;;;;11.70;3.92;;;7.90;99.90;;;;;;6242300;23;20370;-76
2023/05/18 02:02:08;;;;;;;9.02;3.70;;;;;;;;;;6217993;23;20414;-76
2023/05/18 02:04:34;;;;;;;8.15;3.70;;;;;;;;;;6218181;23;20366;-77
2023/05/18 02:07:00;;;;;;;10.82;4.07;;;;;;;;;;6218393;23;20824;-77
2023/05/18 02:09:26;;;;;;;12.82;4.05;;;;;;;;;;6217752;23;20362;-77
2023/05/18 02:11:52;;;;;;;10.15;4.10;;;;;;;;;;6218143;23;20445;-76
2023/05/18 02:14:18;;;;;;;9.30;3.72;;;;;;;;;;6191720;23;20437;-77
2023/05/18 02:16:45;;;;;;;14.88;3.95;;;;;;;;;;6243385;23;20366;-77
2023/05/18 02:19:13;;;;;;;10.27;3.97;;;;;;;;;;6245305;22;20473;-76
2023/05/18 02:21:40;;;;;;;11.60;3.67;;;;;;;;;;6215974;23;20435;-76
2023/05/18 02:24:06;;;;;;;11.32;3.53;;;;;;;;;;6243257;23;20419;-77
2023/05/18 02:26:33;;;;;;;9.00;3.00;;;;;;;;;;6243277;23;20365;-77
2023/05/18 02:28:59;;;;;;;10.32;3.25;;;;;;;;;;6219011;23;20374;-77
2023/05/18 02:31:28;;;;;;;8.23;3.60;;;;;;;;;;6218581;23;20851;-76
2023/05/18 02:33:54;;;;;;;10.57;3.60;;;;;;;;;;6244594;22;20382;-77
2023/05/18 02:36:21;;;;;;;9.55;3.60;;;;;;;;;;6242081;23;20440;-77
2023/05/18 02:38:47;;;;;;;10.38;3.47;;;;;;;;;;6242649;23;20373;-77
2023/05/18 02:41:14;;;;;;;8.77;3.72;;;;;;;;;;6242223;23;20419;-76
2023/05/18 02:43:40;;;;;;;9.00;4.13;;;;;;;;;;6243183;23;20377;-77
2023/05/18 02:46:06;;;;;;;10.30;3.50;;;;;;;;;;6243787;23;20457;-76
2023/05/18 02:48:32;;;;;;;9.93;3.45;;;;;;;;;;6243101;23;20393;-77
2023/05/18 02:50:58;;;;;;;13.00;3.43;;;;;;;;;;6243369;23;20434;-76
2023/05/18 02:53:25;;;;;;;8.63;3.20;;;;;;;;;;6218329;23;20393;-76
2023/05/18 02:55:58;;;;;;;10.87;3.60;;;;;;;;;;6242176;23;20882;-76
2023/05/18 02:58:24;;;;;;;9.68;3.40;;;;;;;;;;6243079;23;20370;-76
2023/05/18 03:00:51;;;;;;;13.10;3.97;;;;;;;;;;6242559;23;20358;-76
2023/05/18 03:03:18;;;;;;;7.78;3.33;;;;;;;;;;6241884;23;20376;-76
2023/05/18 03:05:44;;;;;;;10.40;3.17;;;;;;;;;;6218458;23;20370;-76
2023/05/18 03:08:10;;;;;;;11.30;3.47;;;;;;;;;;6217261;23;20402;-76
2023/05/18 03:10:36;;;;;;;9.82;3.50;;;;;;;;;;6244714;23;20358;-77
2023/05/18 03:13:03;;;;;;;9.93;3.47;;;;;;;;;;6242863;23;20416;-76
2023/05/18 03:15:31;;;;;;;10.15;3.40;;;;;;;;;;6242612;23;20408;-75
2023/05/18 03:18:00;;;;;;;9.30;3.45;;;;;;;;;;6243025;23;20867;-77
2023/05/18 03:20:28;;;;;;;9.85;3.40;;;;;;;;;;6218524;23;20411;-77
2023/05/18 03:22:54;;;;;;;10.05;3.20;;;;;;;;;;6243327;23;20422;-77
2023/05/18 03:25:21;;;;;;;9.30;3.53;;;;;;;;;;6242847;23;20369;-77
2023/05/18 03:27:47;;;;;;;9.73;3.17;;;;;;;;;;6217472;23;20366;-75
2023/05/18 03:30:13;;;;;;;13.63;3.40;;;;;;;;;;6243130;23;20439;-76
2023/05/18 03:32:40;;;;;;;8.43;3.10;;;;;;;;;;6217191;23;20386;-76
2023/05/18 03:35:06;;;;;;;9.70;3.38;;;;;;;;;;6242178;23;20372;-77
2023/05/18 03:37:32;;;;;;;16.75;3.70;;;;;;;;;;6218830;23;20373;-75
2023/05/18 03:39:59;;;;;;;10.18;3.13;;;;;;;;;;6244283;23;20362;-75
2023/05/18 03:42:25;;;;;;;11.35;3.78;;;;;;;;;;6243417;23;20376;-75
2023/05/18 03:44:51;;;;;;;11.98;3.63;;;;;;;;;;6242415;23;20816;-77
2023/05/18 03:47:17;;;;;;;10.32;3.63;;;;;;;;;;6242255;23;20453;-76
2023/05/18 03:49:43;;;;;;;8.63;3.38;;;;;;;;;;6243115;23;20366;-76
2023/05/18 03:52:10;;;;;;;10.27;4.10;;;;;;;;;;6243645;23;20399;-76
2023/05/18 03:54:36;;;;;;;9.35;3.13;;;;;;;;;;6243327;23;20369;-76
2023/05/18 03:57:02;;;;;;;11.30;4.00;;;;;;;;;;6222659;23;20393;-76
2023/05/18 03:59:28;;;;;;;11.70;3.92;;;;;;;;;;6230342;23;20361;-76
2023/05/18 04:01:54;;;;;;;10.25;3.50;;;;;;;;;;6256301;23;20370;-76
2023/05/18 04:04:22;;;;;;;8.68;3.53;;;8.00;99.90;;;;;;6256280;23;20366;-76
2023/05/18 04:06:50;;;;;;;9.05;3.50;;;;;;;;;;6255289;22;20361;-75
2023/05/18 04:09:16;;;;;;;8.32;3.72;;;;;;;;;;6252658;23;20394;-76
2023/05/18 04:11:43;;;;;;;9.00;3.72;;;8.30;99.90;;;;;;6248580;23;20366;-76
2023/05/18 04:14:10;;;;;;;10.68;3.33;;;;;;;;;;6245512;23;20396;-77
2023/05/18 04:16:36;;;;;;;11.02;3.67;;;;;;;;;;6247086;23;20373;-77
2023/05/18 04:19:03;;;;;;;12.88;4.30;;;;;;;;;;6245105;23;20400;-76
2023/05/18 04:21:34;;;;;;;10.95;3.50;;;;;;;;;;6242214;23;20396;-76
2023/05/18 04:24:04;;;;;;;9.75;3.50;;;;;;;;;;6242734;23;20832;-76
2023/05/18 04:26:30;;;;;;;14.67;3.60;;;;;;;;;;6242958;23;20677;-76
2023/05/18 04:28:59;;;;;;;11.30;3.72;;;;;;;;;;6244415;23;20370;-76
2023/05/18 04:31:28;;;;;;;8.63;3.58;;;;;;;;;;6244293;23;20369;-76
2023/05/18 04:33:56;;;;;;;10.60;4.38;;;;;;;;;;6244840;23;20871;-76
2023/05/18 04:36:24;;;;;;;9.97;4.57;;;;;;;;;;6243806;23;20366;-76
2023/05/18 04:38:50;;;;;;;9.23;3.90;;;;;;;;;;6243631;23;20366;-74
2023/05/18 04:41:19;;;;;;;10.55;4.30;;;;;;;;;;6244514;23;20440;-75
2023/05/18 04:43:46;;;;;;;12.13;4.15;;;;;;;;;;6244254;23;20370;-76
2023/05/18 04:46:15;;;;;;;9.40;4.38;;;;;;;;;;6244726;23;20374;-76
2023/05/18 04:48:42;;;;;;;11.57;4.38;;;;;;;;;;6246630;22;20444;-77
2023/05/18 04:51:08;;;;;;;11.53;4.13;;;;;;;;;;6244063;23;20415;-76
2023/05/18 04:53:34;;;;;;;10.65;3.47;;;;;;;;;;6244009;23;20389;-76
2023/05/18 04:56:01;;;;;;;11.77;4.25;;;8.80;99.90;;;;;;6245154;23;20366;-76
2023/05/18 04:58:27;;;;;;;10.35;4.05;;;;;;;;;;6244019;23;20419;-75
2023/05/18 05:00:53;;;;;;;12.53;4.10;;;;;;;;;;6216648;23;21105;-75
2023/05/18 05:03:19;;;;;;;9.98;4.32;;;;;;;;;;6242590;23;20373;-75
2023/05/18 05:05:45;;;;;;;11.48;3.70;;;;;;;;;;6219155;23;20370;-75
2023/05/18 05:08:11;;;;;;;13.03;4.10;;;;;;;;;;6245222;23;20358;-75
2023/05/18 05:10:37;;;;;;;12.40;4.10;;;;;;;;;;6243776;23;20927;-75
2023/05/18 05:13:04;;;;;;;12.23;4.10;;;;;;;;;;6244561;23;20894;-76
2023/05/18 05:15:30;;;;;;;8.77;3.80;;;;;;;;;;6243204;23;20537;-76
2023/05/18 05:17:57;;;;;;;13.65;4.43;;;;;;;;;;6243102;23;20657;-76
2023/05/18 05:20:23;;;;;;;12.47;3.73;;;;;;;;;;6244311;23;20809;-76
2023/05/18 05:22:49;;;;;;;13.18;3.70;;;;;;;;;;6243940;23;20369;-76
2023/05/18 05:25:15;;;;;;;11.55;3.80;;;;;;;;;;6243382;23;20370;-75
2023/05/18 05:27:41;;;;;;;11.30;4.25;;;;;;;;;;6218257;23;20410;-76
2023/05/18 05:30:08;;;;;;;10.20;3.57;;;;;;;;;;6242161;23;20408;-73
2023/05/18 05:32:35;;;;;;;9.65;3.60;;;;;;;;;;6243977;23;20393;-74
2023/05/18 05:35:01;;;;;;;15.05;4.30;;;;;;;;;;6243702;23;20364;-75
2023/05/18 05:37:27;;;;;;;13.50;4.05;;;;;;;;;;6242943;23;20417;-75
2023/05/18 05:39:53;;;;;;;9.57;4.07;;;;;;;;;;6244322;23;20823;-75
2023/05/18 05:42:20;;;;;;;10.65;4.15;;;;;;;;;;6244024;23;20366;-76
2023/05/18 05:44:46;;;;;;;13.70;4.28;;;;;;;;;;6241980;23;20388;-77
2023/05/18 05:47:12;;;;;;;9.63;3.60;;;;;;;;;;6218995;23;20370;-77
2023/05/18 05:49:38;;;;;;;9.27;3.43;;;;;;;;;;6244660;23;20374;-77
2023/05/18 05:52:04;;;;;;;10.80;4.57;;;;;;;;;;6244172;23;20423;-77
2023/05/18 05:54:30;;;;;;;10.25;3.60;;;;;;;;;;6242673;23;20725;-76
2023/05/18 05:56:56;;;;;;;10.07;3.90;;;;;;;;;;6243380;23;20425;-77
2023/05/18 05:59:22;;;;;;;9.70;4.50;;;;;;;;;;6244018;23;20369;-78
2023/05/18 06:01:48;;;;;;;9.15;3.88;;;;;;;;;;6243840;23;20366;-77
2023/05/18 06:04:15;;;;;;;8.73;3.25;;;;;;;;;;6243997;23;20376;-78
2023/05/18 06:06:42;;;;;;;9.82;3.28;;;;;;;;;;6218313;23;20424;-78
2023/05/18 06:09:09;;;;;;;9.48;3.47;;;;;;;;;;6244910;22;20426;-78
2023/05/18 06:11:35;;;;;;;8.40;2.90;;;;;;;;;;6245801;22;20457;-77
2023/05/18 06:14:01;;;;;;;8.70;2.83;;;;;;;;;;6242238;23;20401;-77
2023/05/18 06:16:27;;;;;;;8.77;3.22;;;;;;;;;;6244179;23;20366;-78
2023/05/18 06:18:53;;;;;;;9.60;3.38;;;;;;;;;;6243224;23;20427;-79
2023/05/18 06:21:19;;;;;;;9.83;3.30;;;;;;;;;;6242614;23;20390;-76
2023/05/18 06:23:46;;;;;;;10.20;3.35;;;;;;;;;;6216608;23;20692;-77
2023/05/18 06:26:12;;;;;;;12.27;3.17;;;;;;;;;;6218409;23;20366;-77
2023/05/18 06:28:38;;;;;;;9.57;2.78;;;;;;;;;;6218522;23;20847;-76
2023/05/18 06:31:04;;;;;;;8.80;2.97;;;;;;;;;;6218175;23;20458;-77
2023/05/18 06:33:30;;;;;;;9.60;2.60;;;;;;;;;;6243188;23;20392;-77
2023/05/18 06:35:56;;;;;;;8.50;2.67;;;;;;;;;;6243621;23;20788;-78
2023/05/18 06:38:22;;;;;;;7.78;2.78;;;;;;;;;;6218325;23;20362;-78
2023/05/18 06:40:49;;;;;;;11.70;3.33;;;;;;;;;;6244101;23;20444;-77
2023/05/18 06:43:15;;;;;;;11.30;2.97;;;;;;;;;;6216752;23;20424;-77
2023/05/18 06:45:41;;;;;;;10.45;2.85;;;;;;;;;;6243660;23;20382;-77
2023/05/18 06:48:07;;;;;;;10.50;2.92;;;;;;;;;;6218642;23;20681;-78
2023/05/18 06:50:33;;;;;;;8.73;3.08;;;;;;;;;;6244895;23;20368;-79
2023/05/18 06:53:01;;;;;;;9.85;3.13;;;9.80;99.90;;;;;;6242515;23;20425;-78
2023/05/18 06:55:27;;;;;;;9.63;3.10;;;;;;;;;;6242415;23;20424;-78
2023/05/18 06:57:57;;;;;;;10.10;3.38;;;;;;;;;;6217714;23;20373;-80
2023/05/18 07:00:23;;;;;;;10.32;3.55;;;;;;;;;;6214193;23;20366;-79
2023/05/18 07:02:49;;;;;;;9.52;3.00;;;;;;;;;;6239815;23;20369;-78
2023/05/18 07:05:16;;;;;;;7.80;2.97;;;;;;;;;;6213958;23;20438;-79
2023/05/18 07:07:42;;;;;;;9.57;3.20;;;;;;;;;;6241758;22;20404;-79
2023/05/18 07:10:08;;;;;;;10.32;3.10;;;;;;;;;;6242055;23;20369;-79
2023/05/18 07:12:34;;;;;;;9.45;3.00;;;;;;;;;;6241585;23;20415;-77
2023/05/18 07:15:00;;;;;;;8.90;3.25;;;;;;;;;;6242272;23;20378;-79
2023/05/18 07:17:27;;;;;;;7.95;2.90;;;;;;;;;;6242832;23;20389;-76
2023/05/18 07:19:52;;;;;;;11.07;3.08;;;10.60;99.90;;;;;;6193987;23;20362;-77
2023/05/18 07:22:18;;;;;;;7.50;3.53;;;;;;;;;;6216048;23;21016;-77
2023/05/18 07:24:44;;;;;;;9.00;3.00;;;;;;;;;;6243842;23;20372;-78
2023/05/18 07:27:10;;;;;;;8.40;2.92;;;;;;;;;;6243889;23;20370;-78
2023/05/18 07:29:37;;;;;;;8.10;3.00;;;;;;;;;;6217975;23;20370;-79
2023/05/18 07:32:03;;;;;;;12.05;3.00;;;;;;;;;;6247560;23;20361;-78
2023/05/18 07:34:29;;;;;;;12.45;2.70;;;;;;;;;;6220994;23;20856;-78
2023/05/18 07:36:56;;;;;;;8.30;3.15;;;;;;;;;;6245490;23;20674;-76
2023/05/18 07:39:27;;;;;;;8.48;3.03;;;;;;;;;;6244419;23;20854;-78
2023/05/18 07:41:53;;;;;;;8.57;2.90;;;;;;;;;;6244112;23;20372;-78
2023/05/18 07:44:19;;;;;;;8.15;2.78;;;;;;;;;;6242494;23;20366;-79
2023/05/18 07:46:45;;;;;;;9.43;3.03;;;;;;;;;;6215109;23;20831;-77
2023/05/18 07:49:12;;;;;;;8.30;2.70;;;;;;;;;;6243975;23;20381;-77
2023/05/18 07:51:38;;;;;;;10.10;3.10;;;;;;;;;;6217806;23;20708;-78
2023/05/18 07:54:04;;;;;;;7.97;2.55;;;;;;;;;;6243340;23;20460;-79
2023/05/18 07:56:30;;;;;;;9.70;2.77;;;;;;;;;;6218233;23;20397;-79
2023/05/18 07:58:56;;;;;;;7.65;2.42;;;;;;;;;;6241902;23;20711;-79
2023/05/18 08:01:26;;;;;;;7.55;2.58;;;;;;;;;;6242822;23;20821;-76
2023/05/18 08:03:53;;;;;;;9.27;3.08;;;;;;;;;;6242336;23;20369;-77
2023/05/18 08:06:19;;;;;;;9.65;2.88;;;;;;;;;;6242616;23;20365;-78
2023/05/18 08:08:45;;;;;;;10.00;3.38;;;;;;;;;;6215965;23;20372;-78
2023/05/18 08:11:12;;;;;;;10.48;2.70;;;;;;;;;;6239342;23;20368;-78
2023/05/18 08:13:38;;;;;;;8.48;2.78;;;;;;;;;;6239111;23;20711;-79
2023/05/18 08:16:04;;;;;;;12.80;2.88;;;;;;;;;;6239575;23;20384;-79
2023/05/18 08:18:30;;;;;;;10.50;2.80;;;;;;;;;;6214930;23;20426;-79
2023/05/18 08:20:56;;;;;;;8.32;2.70;;;;;;;;;;6215406;23;20839;-78
2023/05/18 08:23:23;;;;;;;7.73;2.80;;;;;;;;;;6240154;23;20508;-78
2023/05/18 08:25:50;;;;;;;9.93;2.83;;;;;;;;;;6240066;23;20866;-78
2023/05/18 08:28:16;;;;;;;8.93;2.90;;;;;;;;;;6241608;23;20366;-76
2023/05/18 08:30:42;;;;;;;7.28;2.70;;;;;;;;;;6216712;23;20739;-78
2023/05/18 08:33:14;;;;;;;7.22;2.63;;;;;;;;;;6242002;23;20429;-78
2023/05/18 08:35:40;;;;;;;7.67;2.37;;;;;;;;;;6237977;23;20436;-79
2023/05/18 08:38:06;;;;;;;7.88;2.80;;;;;;;;;;6240234;23;20406;-78
2023/05/18 08:40:36;;;;;;;7.28;2.53;;;;;;;;;;6241796;23;20424;-78
2023/05/18 08:43:07;;;;;;;6.07;2.30;;;12.60;99.90;;;;;;6242663;23;20451;-77
2023/05/18 08:46:00;;;;;;;5.80;2.40;;;12.40;99.90;;;;;;6242039;23;20377;-78
2023/05/18 08:48:27;;;;;;;8.60;2.70;;;;;;;;;;6229693;23;20398;-77
2023/05/18 08:50:55;;;;;;;8.40;2.75;;;;;;;;;;6241576;23;20445;-77
2023/05/18 08:53:24;;;;;;;7.03;2.63;;;;;;;;;;6244200;22;20467;-78
2023/05/18 08:55:53;;;;;;;7.60;2.53;;;;;;;;;;6216475;23;20705;-78
2023/05/18 08:58:20;;;;;;;10.32;2.67;;;;;;;;;;6214542;23;20366;-77
2023/05/18 09:00:46;;;;;;;9.87;2.50;;;;;;;;;;6212110;23;20452;-77
2023/05/18 09:03:15;;;;;;;9.90;2.67;;;;;;;;;;6215661;23;20461;-78
2023/05/18 09:05:42;;;;;;;8.75;3.13;;;;;;;;;;6191267;23;20362;-79
2023/05/18 09:08:09;;;;;;;9.15;2.53;;;;;;;;;;6215910;23;20460;-79
2023/05/18 09:10:35;;;;;;;6.85;2.38;;;;;;;;;;6241642;23;20448;-78
2023/05/18 09:13:03;;;;;;;9.60;2.55;;;;;;;;;;6214190;23;20716;-79
2023/05/18 09:15:29;;;;;;;7.80;2.30;;;;;;;;;;6240576;23;20393;-79
2023/05/18 09:17:55;;;;;;;10.05;2.70;;;;;;;;;;6217509;23;20366;-78
2023/05/18 09:20:21;;;;;;;8.13;2.60;;;;;;;;;;6243375;23;20385;-79
2023/05/18 09:22:50;;;;;;;8.25;2.20;;;;;;;;;;6216770;23;20373;-79
2023/05/18 09:25:17;;;;;;;9.47;2.70;;;12.70;99.90;;;;;;6216824;23;20366;-78
2023/05/18 09:27:43;;;;;;;6.80;2.50;;;;;;;;;;6241992;23;20370;-78
2023/05/18 09:30:10;;;;;;;8.30;2.83;;;;;;;;;;6216612;23;20374;-78
2023/05/18 09:32:36;;;;;;;9.18;2.72;;;;;;;;;;6243774;23;20405;-79
2023/05/18 09:35:04;;;;;;;7.88;2.30;;;;;;;;;;6238764;23;20863;-79
2023/05/18 09:37:30;;;;;;;8.13;2.58;;;;;;;;;;6239718;23;20373;-79
2023/05/18 09:40:01;;;;;;;10.07;2.60;;;;;;;;;;6240471;23;20673;-79
2023/05/18 09:42:48;;;;;;;8.63;2.78;;;;;;;;;;6217955;23;20372;-79
2023/05/18 09:45:16;;;;;;;8.52;2.63;;;;;;;;;;6243470;23;20384;-79
2023/05/18 09:47:42;;;;;;;8.48;2.60;;;;;;;;;;6242465;23;20388;-78
2023/05/18 09:50:08;;;;;;;7.78;2.70;;;;;;;;;;6243933;22;20365;-78
2023/05/18 09:53:00;;;;;;;7.13;2.53;;;14.00;99.90;;;;;;6242648;23;20464;-77
2023/05/18 09:55:26;;;;;;;8.63;2.53;;;;;;;;;;6209455;23;20416;-75
2023/05/18 09:57:52;;;;;;;7.40;2.50;;;;;;;;;;6217820;23;20461;-79
2023/05/18 10:00:19;;;;;;;9.23;2.70;;;13.70;99.90;;;;;;6217397;23;20369;-78
2023/05/18 10:02:47;;;;;;;8.38;2.50;;;14.20;99.90;;;;;;6218381;23;20377;-77
2023/05/18 10:05:21;;;;;;;9.50;2.70;;;;;;;;;;6217875;23;20461;-78
2023/05/18 10:07:47;;;;;;;8.25;2.53;;;;;;;;;;6241666;23;20377;-79
2023/05/18 10:10:16;;;;;;;8.55;2.47;;;;;;;;;;6243151;23;20696;-79
2023/05/18 10:12:43;;;;;;;8.20;2.58;;;;;;;;;;6217809;23;20386;-78
2023/05/18 10:15:10;;;;;;;6.85;2.20;;;;;;;;;;6241914;23;20378;-78
2023/05/18 10:17:37;;;;;;;8.02;2.80;;;;;;;;;;6241246;23;21156;-80
2023/05/18 10:20:07;;;;;;;7.88;2.40;;;14.90;99.90;;;;;;6240599;23;20441;-80
2023/05/18 10:22:34;;;;;;;8.80;3.25;;;;;;;;;;6216274;23;20844;-79
2023/05/18 10:25:03;;;;;;;8.65;2.45;;;14.50;99.90;;;;;;6243267;23;20692;-79
2023/05/18 10:27:33;;;;;;;6.25;2.33;;;;;;;;;;6242439;23;20898;-77
2023/05/18 10:30:02;;;;;;;11.40;2.45;;;;;;;;;;6216659;23;20370;-76
2023/05/18 10:32:31;;;;;;;10.00;3.08;;;15.10;99.90;;;;;;6244894;22;20358;-79
2023/05/18 10:34:58;;;;;;;11.03;2.47;;;15.00;99.90;;;;;;6239827;23;20397;-78
2023/05/18 10:37:29;;;;;;;7.28;2.38;;;14.70;99.90;;;;;;6192475;23;20362;-77
2023/05/18 10:39:56;;;;;;;11.25;2.65;;;;;;;;;;6242209;23;20366;-78
2023/05/18 10:42:22;;;;;;;9.07;2.70;;;;;;;;;;6243158;22;20839;-78
2023/05/18 10:44:51;;;;;;;6.32;2.20;;;15.20;99.90;;;;;;6239552;23;20849;-79
2023/05/18 10:47:18;;;;;;;6.95;2.40;;;14.90;99.90;;;;;;6216597;23;20362;-78
2023/05/18 10:49:48;;;;;;;8.17;2.47;;;;;;;;;;6242419;23;20369;-80
2023/05/18 10:52:18;;;;;;;7.03;2.35;;;15.40;99.90;;;;;;6244351;23;20854;-77
2023/05/18 10:54:45;;;;;;;8.45;2.75;;;;;;;;;;6224114;23;20366;-79
2023/05/18 10:57:13;;;;;;;7.10;2.90;;;;;;;;;;6199976;23;20368;-79
2023/05/18 10:59:43;;;;;;;8.20;3.17;;;15.40;99.90;;;;;;6216657;23;20369;-78
2023/05/18 11:02:14;;;;;;;14.48;3.05;;;;;;;;;;6239010;23;20370;-75
2023/05/18 11:04:49;;;;;;;7.25;2.30;;;;;;;;;;6240341;23;20370;-78
2023/05/18 11:07:16;;;;;;;7.70;3.23;;;;;;;;;;6215053;23;20380;-79
2023/05/18 11:09:43;;;;;;;8.60;3.17;;;15.40;99.90;;;;;;6243237;22;20390;-79
2023/05/18 11:12:13;;;;;;;6.93;2.20;;;;;;;;;;6214076;23;20365;-79
2023/05/18 11:14:50;;;;;;;7.78;3.00;;;15.10;99.90;;;;;;6240444;23;20463;-79
2023/05/18 11:17:16;;;;;;;6.93;2.55;;;;;;;;;;6213802;23;20421;-78
2023/05/18 11:20:11;;;;;;;9.30;3.13;;;;;;;;;;6238961;23;20370;-80
2023/05/18 11:22:47;;;;;;;7.93;2.40;;;;;;;;;;6235622;23;20377;-79
2023/05/18 11:25:25;;;;;;;6.80;2.90;;;;;;;;;;6238876;23;20370;-78
2023/05/18 11:28:03;;;;;;;8.40;2.70;;;;;;;;;;6241821;23;20448;-76
2023/05/18 11:30:29;;;;;;;7.30;2.70;;;;;;;;;;6240250;23;20447;-79
2023/05/18 11:33:16;;;;;;;9.00;2.72;;;;;;;;;;6240735;23;20386;-78
2023/05/18 11:36:14;;;;;;;9.70;2.92;;;15.80;99.90;;;;;;6240166;23;20370;-78
2023/05/18 11:38:53;;;;;;;6.57;3.10;;;14.80;99.90;;;;;;6239283;23;20401;-80
2023/05/18 11:41:48;;;;;;;9.75;2.83;;;15.60;99.90;;;;;;6242335;23;20369;-80
2023/05/18 11:44:16;;;;;;;6.50;2.70;;;15.50;99.90;;;;;;6236741;23;20369;-80
2023/05/18 11:46:51;;;;;;;8.05;2.80;;;;;;;;;;6240011;23;20381;-79
2023/05/18 11:49:17;;;;;;;7.32;2.70;;;;;;;;;;6239786;23;20373;-80
2023/05/18 11:52:04;;;;;;;9.20;2.92;;;;;;;;;;6239706;23;20370;-78
2023/05/18 11:54:34;;;;;;;7.60;2.80;;;;;;;;;;6212063;23;20451;-80
2023/05/18 11:57:00;;;;;;;8.82;2.70;;;;;;;;;;6236442;23;20362;-80
2023/05/18 11:59:32;;;;;;;8.32;2.72;;;;;;;;;;6215379;23;20365;-80
2023/05/18 12:02:02;;;;;;;7.88;2.75;;;;;;;;;;6215593;23;20918;-80
2023/05/18 12:04:30;;;;;;;9.40;2.80;;;;;;;;;;6240625;23;20413;-79
2023/05/18 12:06:56;;;;;;;8.32;2.80;;;16.70;99.90;;;;;;6216257;23;20378;-80
2023/05/18 12:09:22;;;;;;;8.65;3.25;;;;;;;;;;6239503;22;20353;-80
2023/05/18 12:11:49;;;;;;;7.28;2.72;;;;;;;;;;6237261;23;20421;-79
2023/05/18 12:14:16;;;;;;;8.50;2.55;;;;;;;;;;6238706;23;20449;-80
2023/05/18 12:16:43;;;;;;;6.60;2.57;;;17.80;99.90;;;;;;6187910;23;20500;-80
2023/05/18 12:19:09;;;;;;;7.43;2.80;;;16.40;99.90;;;;;;6188177;23;20464;-79
2023/05/18 12:21:35;;;;;;;7.40;2.90;;;16.30;99.90;;;;;;6214512;23;20385;-81
2023/05/18 12:24:04;;;;;;;6.28;2.60;;;;;;;;;;6187069;23;20458;-80
2023/05/18 12:26:30;;;;;;;7.15;2.55;;;;;;;;;;6238899;23;20832;-80
2023/05/18 12:28:57;;;;;;;7.85;2.70;;;;;;;;;;6241123;23;20372;-80
2023/05/18 12:31:22;;;;;;;8.15;2.72;;;17.10;99.90;;;;;;6241333;23;20398;-79
2023/05/18 12:33:50;;;;;;;6.18;2.35;;;16.90;99.90;;;;;;6214172;23;20736;-79
2023/05/18 12:36:16;;;;;;;7.10;2.73;;;16.00;99.90;;;;;;6212249;23;20366;-79
2023/05/18 12:38:42;;;;;;;6.60;2.58;;;;;;;;;;6216197;23;20366;-79
2023/05/18 12:41:08;;;;;;;7.20;2.78;;;;;;;;;;6215618;23;20368;-80
2023/05/18 12:43:35;;;;;;;8.15;2.80;;;17.60;99.70;;;;;;6215961;23;20824;-79
2023/05/18 12:46:04;;;;;;;7.23;2.03;;;;;;;;;;6190043;23;20447;-78
2023/05/18 12:48:43;;;;;;;6.53;2.50;;;17.30;99.10;;;;;;6242626;23;20370;-79
2023/05/18 12:51:20;;;;;;;7.95;2.72;;;16.60;99.80;;;;;;6239050;23;20408;-76
2023/05/18 12:53:49;;;;;;;9.10;2.97;;;16.90;99.90;;;;;;6242595;23;20404;-78
2023/05/18 12:56:15;;;;;;;7.47;2.58;;;16.60;99.90;;;;;;6217210;23;20370;-77
2023/05/18 12:58:57;;;;;;;7.35;2.55;;;16.50;99.90;;;;;;6240347;23;20838;-79
2023/05/18 13:01:23;;;;;;;6.32;2.63;;;16.20;99.90;;;;;;6237862;23;20862;-78
2023/05/18 13:03:55;;;;;;;7.22;2.78;;;;;;;;;;6241244;23;20369;-79
2023/05/18 13:06:21;;;;;;;6.40;2.95;;;16.30;99.90;;;;;;6216493;23;20827;-79
2023/05/18 13:08:46;;;;;;;6.10;2.53;;;17.10;99.90;;;;;;6215063;23;20377;-79
2023/05/18 13:11:14;;;;;;;6.40;2.80;;;;;;;;;;6216773;23;20369;-81
2023/05/18 13:14:00;;;;;;;9.10;2.83;;;16.60;99.90;;;;;;6246683;22;20650;-80
2023/05/18 13:16:28;;;;;;;6.40;2.58;;;17.50;99.90;;;;;;6244799;23;20401;-81
2023/05/18 13:18:55;;;;;;;7.20;3.03;;;17.50;99.80;;;;;;6217896;23;20373;-83
2023/05/18 13:21:24;;;;;;;7.53;2.50;;;;;;;;;;6244410;23;20361;-83
2023/05/18 13:23:51;;;;;;;8.25;3.05;;;16.90;99.80;;;;;;6244045;23;20357;-81
2023/05/18 13:26:20;;;;;;;9.75;2.92;;;16.80;99.90;;;;;;6245058;23;20836;-82
2023/05/18 13:28:50;;;;;;;6.45;2.60;;;17.80;99.20;;;;;;6244587;23;20366;-81
2023/05/18 13:31:17;;;;;;;5.93;2.73;;;;;;;;;;6242880;23;20377;-81
2023/05/18 13:33:43;;;;;;;7.88;2.83;;;;;;;;;;6245862;23;20388;-82
2023/05/18 13:36:09;;;;;;;8.77;2.90;;;;;;;;;;6222236;23;20370;-82
2023/05/18 13:38:36;;;;;;;8.00;2.70;;;;;;;;;;6220489;23;20366;-81
2023/05/18 13:41:03;;;;;;;6.57;2.50;;;17.00;99.90;;;;;;6221696;23;20369;-82
2023/05/18 13:43:32;;;;;;;8.45;2.97;;;;;;;;;;6242318;23;20828;-81
2023/05/18 13:45:58;;;;;;;8.88;2.70;;;;;;;;;;6241288;23;20362;-82
2023/05/18 13:48:27;;;;;;;7.63;2.78;;;;;;;;;;6194724;23;20408;-82
2023/05/18 13:50:56;;;;;;;8.57;2.92;;;;;;;;;;6245613;23;20366;-83
2023/05/18 13:53:23;;;;;;;8.55;2.90;;;;;;;;;;6239616;23;20385;-82
2023/05/18 13:55:49;;;;;;;6.80;2.90;;;;;;;;;;6243615;23;20362;-83
2023/05/18 13:58:15;;;;;;;7.35;2.85;;;;;;;;;;6240424;23;20871;-83
2023/05/18 14:00:41;;;;;;;8.80;2.75;;;17.70;99.90;;;;;;6240962;23;20370;-81
2023/05/18 14:03:08;;;;;;;7.70;2.90;;;;;;;;;;6242244;23;20384;-81
2023/05/18 14:05:35;;;;;;;7.28;2.90;;;;;;;;;;6217536;23;20372;-81
2023/05/18 14:08:00;;;;;;;6.97;2.53;;;18.60;99.60;;;;;;6240975;23;20470;-81
2023/05/18 14:10:26;;;;;;;7.25;2.70;;;;;;;;;;6218198;23;20842;-81
2023/05/18 14:12:52;;;;;;;6.35;2.70;;;18.60;99.60;;;;;;6219616;23;20385;-80
2023/05/18 14:15:18;;;;;;;8.15;2.50;;;18.80;99.70;;;;;;6218031;23;20396;-82
2023/05/18 14:17:44;;;;;;;9.70;2.60;;;;;;;;;;6216742;23;20370;-81
2023/05/18 14:20:11;;;;;;;8.03;2.73;;;17.80;99.90;;;;;;6242880;23;20362;-82